sensor_id;sensor_type;location;lat;lon;timestamp;pressure;altitude;pressure_sealevel;temperature;humidity
68399;BME280;56258;52.196;13.868;2023-02-17T00:00:10;101558.66;;;14.18;43.18
68399;BME280;56258;52.196;13.868;2023-02-17T00:02:37;101564.72;;;14.20;42.86
68399;BME280;56258;52.196;13.868;2023-02-17T00:05:05;101561.69;;;14.25;42.70
68399;BME280;56258;52.196;13.868;2023-02-17T00:07:32;101566.28;;;14.23;43.24
68399;BME280;56258;52.196;13.868;2023-02-17T00:09:59;101550.63;;;14.18;43.14
68399;BME280;56258;52.196;13.868;2023-02-17T00:12:26;101549.78;;;14.18;42.62
68399;BME280;56258;52.196;13.868;2023-02-17T00:14:52;101561.06;;;14.21;43.07
68399;BME280;56258;52.196;13.868;2023-02-17T00:17:19;101549.91;;;14.16;43.17
68399;BME280;56258;52.196;13.868;2023-02-17T00:19:45;101558.66;;;14.62;42.53
68399;BME280;56258;52.196;13.868;2023-02-17T00:22:12;101553.66;;;15.10;41.70
68399;BME280;56258;52.196;13.868;2023-02-17T00:24:39;101553.88;;;15.58;40.58
68399;BME280;56258;52.196;13.868;2023-02-17T00:27:06;101549.09;;;15.92;40.00
68399;BME280;56258;52.196;13.868;2023-02-17T00:29:33;101542.94;;;16.11;39.46
68399;BME280;56258;52.196;13.868;2023-02-17T00:31:59;101550.72;;;16.24;39.98
68399;BME280;56258;52.196;13.868;2023-02-17T00:34:26;101550.72;;;16.53;39.46
68399;BME280;56258;52.196;13.868;2023-02-17T00:36:53;101541.44;;;16.57;39.58
68399;BME280;56258;52.196;13.868;2023-02-17T00:39:20;101544.56;;;16.72;38.75
68399;BME280;56258;52.196;13.868;2023-02-17T00:41:46;101551.91;;;16.79;38.98
68399;BME280;56258;52.196;13.868;2023-02-17T00:44:17;101544.41;;;16.92;38.52
68399;BME280;56258;52.196;13.868;2023-02-17T00:46:45;101540.69;;;17.03;38.48
68399;BME280;56258;52.196;13.868;2023-02-17T00:49:17;101542.19;;;17.25;38.12
68399;BME280;56258;52.196;13.868;2023-02-17T00:51:45;101536.56;;;17.18;37.87
68399;BME280;56258;52.196;13.868;2023-02-17T00:54:12;101536.84;;;17.25;38.01
68399;BME280;56258;52.196;13.868;2023-02-17T00:56:39;101550.34;;;17.33;38.82
68399;BME280;56258;52.196;13.868;2023-02-17T00:59:08;101541.28;;;17.44;38.79
68399;BME280;56258;52.196;13.868;2023-02-17T01:01:35;101528.63;;;17.54;37.96
68399;BME280;56258;52.196;13.868;2023-02-17T01:04:02;101528.78;;;17.53;38.54
68399;BME280;56258;52.196;13.868;2023-02-17T01:06:36;101522.22;;;17.65;38.20
68399;BME280;56258;52.196;13.868;2023-02-17T01:09:05;101522.66;;;17.70;38.17
68399;BME280;56258;52.196;13.868;2023-02-17T01:11:34;101514.28;;;17.73;38.01
68399;BME280;56258;52.196;13.868;2023-02-17T01:14:03;101509.78;;;17.91;38.13
68399;BME280;56258;52.196;13.868;2023-02-17T01:16:40;101502.72;;;17.90;37.42
68399;BME280;56258;52.196;13.868;2023-02-17T01:19:10;101504.09;;;17.94;37.44
68399;BME280;56258;52.196;13.868;2023-02-17T01:21:37;101505.34;;;18.00;38.05
68399;BME280;56258;52.196;13.868;2023-02-17T01:24:05;101490.91;;;18.19;37.25
68399;BME280;56258;52.196;13.868;2023-02-17T01:26:35;101491.44;;;18.22;37.57
68399;BME280;56258;52.196;13.868;2023-02-17T01:29:03;101474.28;;;18.23;37.61
68399;BME280;56258;52.196;13.868;2023-02-17T01:31:29;101461.69;;;18.24;37.18
68399;BME280;56258;52.196;13.868;2023-02-17T01:33:59;101461.38;;;18.27;37.60
68399;BME280;56258;52.196;13.868;2023-02-17T01:36:26;101456.38;;;18.32;38.01
68399;BME280;56258;52.196;13.868;2023-02-17T01:38:53;101461.13;;;18.38;37.55
68399;BME280;56258;52.196;13.868;2023-02-17T01:41:22;101454.44;;;18.42;37.21
68399;BME280;56258;52.196;13.868;2023-02-17T01:44:15;101447.91;;;18.45;37.74
68399;BME280;56258;52.196;13.868;2023-02-17T01:46:47;101435.81;;;18.49;37.88
68399;BME280;56258;52.196;13.868;2023-02-17T01:52:13;101445.28;;;18.53;37.40
68399;BME280;56258;52.196;13.868;2023-02-17T01:54:48;101440.25;;;18.58;37.74
68399;BME280;56258;52.196;13.868;2023-02-17T01:57:21;101432.03;;;18.59;37.31
68399;BME280;56258;52.196;13.868;2023-02-17T01:59:49;101429.09;;;18.71;37.16
68399;BME280;56258;52.196;13.868;2023-02-17T02:02:17;101421.41;;;18.76;36.94
68399;BME280;56258;52.196;13.868;2023-02-17T02:04:46;101418.91;;;18.82;36.56
68399;BME280;56258;52.196;13.868;2023-02-17T02:07:22;101425.13;;;18.83;36.90
68399;BME280;56258;52.196;13.868;2023-02-17T02:09:55;101415.03;;;18.85;36.95
68399;BME280;56258;52.196;13.868;2023-02-17T02:12:31;101413.69;;;18.81;37.30
68399;BME280;56258;52.196;13.868;2023-02-17T02:15:06;101411.19;;;18.87;37.01
68399;BME280;56258;52.196;13.868;2023-02-17T02:28:31;101409.22;;;18.98;37.00
68399;BME280;56258;52.196;13.868;2023-02-17T02:33:58;101396.28;;;19.09;36.64
68399;BME280;56258;52.196;13.868;2023-02-17T02:39:35;101388.25;;;19.17;36.38
68399;BME280;56258;52.196;13.868;2023-02-17T02:42:07;101385.72;;;19.16;36.35
68399;BME280;56258;52.196;13.868;2023-02-17T02:44:35;101382.03;;;19.17;36.38
68399;BME280;56258;52.196;13.868;2023-02-17T02:47:44;101376.13;;;19.21;36.27
68399;BME280;56258;52.196;13.868;2023-02-17T02:55:57;101366.22;;;19.22;36.32
68399;BME280;56258;52.196;13.868;2023-02-17T02:59:03;101360.69;;;19.40;35.93
68399;BME280;56258;52.196;13.868;2023-02-17T03:04:41;101359.34;;;19.44;36.39
68399;BME280;56258;52.196;13.868;2023-02-17T03:07:16;101360.91;;;19.46;36.16
68399;BME280;56258;52.196;13.868;2023-02-17T03:09:55;101341.00;;;19.47;36.17
68399;BME280;56258;52.196;13.868;2023-02-17T03:12:24;101346.91;;;19.51;35.96
68399;BME280;56258;52.196;13.868;2023-02-17T03:15:05;101338.44;;;19.38;36.20
68399;BME280;56258;52.196;13.868;2023-02-17T03:17:34;101329.31;;;19.31;36.06
68399;BME280;56258;52.196;13.868;2023-02-17T03:20:03;101335.03;;;19.19;36.29
68399;BME280;56258;52.196;13.868;2023-02-17T03:22:35;101323.91;;;19.14;36.62
68399;BME280;56258;52.196;13.868;2023-02-17T03:25:03;101329.75;;;19.02;36.29
68399;BME280;56258;52.196;13.868;2023-02-17T03:27:30;101333.53;;;18.83;36.88
68399;BME280;56258;52.196;13.868;2023-02-17T03:29:57;101334.75;;;18.62;37.31
68399;BME280;56258;52.196;13.868;2023-02-17T03:32:23;101327.69;;;18.10;38.05
68399;BME280;56258;52.196;13.868;2023-02-17T03:34:50;101317.09;;;17.55;39.09
68399;BME280;56258;52.196;13.868;2023-02-17T03:37:17;101305.19;;;17.39;40.02
68399;BME280;56258;52.196;13.868;2023-02-17T03:39:44;101306.84;;;17.23;39.52
68399;BME280;56258;52.196;13.868;2023-02-17T03:42:11;101300.00;;;17.10;39.99
68399;BME280;56258;52.196;13.868;2023-02-17T03:44:38;101312.41;;;16.94;39.97
68399;BME280;56258;52.196;13.868;2023-02-17T03:47:04;101308.94;;;16.83;40.28
68399;BME280;56258;52.196;13.868;2023-02-17T03:49:31;101299.69;;;16.68;41.11
68399;BME280;56258;52.196;13.868;2023-02-17T03:51:57;101301.78;;;16.55;40.64
68399;BME280;56258;52.196;13.868;2023-02-17T03:54:25;101306.22;;;16.46;41.07
68399;BME280;56258;52.196;13.868;2023-02-17T03:56:52;101307.81;;;16.39;41.63
68399;BME280;56258;52.196;13.868;2023-02-17T03:59:19;101303.16;;;16.31;40.86
68399;BME280;56258;52.196;13.868;2023-02-17T04:01:45;101307.56;;;16.23;41.84
68399;BME280;56258;52.196;13.868;2023-02-17T04:04:12;101295.03;;;16.14;41.71
68399;BME280;56258;52.196;13.868;2023-02-17T04:06:39;101290.06;;;16.09;41.58
68399;BME280;56258;52.196;13.868;2023-02-17T04:09:05;101287.00;;;16.04;41.50
68399;BME280;56258;52.196;13.868;2023-02-17T04:11:32;101290.97;;;16.00;41.69
68399;BME280;56258;52.196;13.868;2023-02-17T04:13:58;101285.88;;;15.97;41.84
68399;BME280;56258;52.196;13.868;2023-02-17T04:16:25;101290.53;;;15.95;41.70
68399;BME280;56258;52.196;13.868;2023-02-17T04:18:51;101282.09;;;15.90;42.08
68399;BME280;56258;52.196;13.868;2023-02-17T04:21:18;101277.72;;;15.89;41.89
68399;BME280;56258;52.196;13.868;2023-02-17T04:23:45;101279.41;;;15.80;42.06
68399;BME280;56258;52.196;13.868;2023-02-17T04:26:11;101282.53;;;15.75;41.94
68399;BME280;56258;52.196;13.868;2023-02-17T04:28:39;101275.03;;;15.69;42.12
68399;BME280;56258;52.196;13.868;2023-02-17T04:31:07;101272.66;;;15.66;41.91
68399;BME280;56258;52.196;13.868;2023-02-17T04:33:34;101262.34;;;15.62;42.17
68399;BME280;56258;52.196;13.868;2023-02-17T04:36:01;101269.81;;;15.58;42.52
68399;BME280;56258;52.196;13.868;2023-02-17T04:38:29;101267.56;;;15.54;42.08
68399;BME280;56258;52.196;13.868;2023-02-17T04:40:57;101266.84;;;15.52;42.47
68399;BME280;56258;52.196;13.868;2023-02-17T04:43:25;101265.28;;;15.49;42.16
68399;BME280;56258;52.196;13.868;2023-02-17T04:45:53;101265.56;;;15.46;42.47
68399;BME280;56258;52.196;13.868;2023-02-17T04:48:20;101256.13;;;15.42;42.41
68399;BME280;56258;52.196;13.868;2023-02-17T04:50:47;101257.13;;;15.41;42.28
68399;BME280;56258;52.196;13.868;2023-02-17T04:53:13;101260.22;;;15.36;42.48
68399;BME280;56258;52.196;13.868;2023-02-17T04:55:41;101254.44;;;15.31;42.58
68399;BME280;56258;52.196;13.868;2023-02-17T04:58:08;101261.63;;;15.31;42.60
68399;BME280;56258;52.196;13.868;2023-02-17T05:00:35;101250.31;;;15.27;42.70
68399;BME280;56258;52.196;13.868;2023-02-17T05:03:02;101248.09;;;15.23;42.71
68399;BME280;56258;52.196;13.868;2023-02-17T05:05:29;101259.50;;;15.25;42.69
68399;BME280;56258;52.196;13.868;2023-02-17T05:07:56;101255.41;;;15.21;42.89
68399;BME280;56258;52.196;13.868;2023-02-17T05:10:23;101262.75;;;15.18;42.75
68399;BME280;56258;52.196;13.868;2023-02-17T05:12:50;101259.38;;;15.16;42.68
68399;BME280;56258;52.196;13.868;2023-02-17T05:15:16;101257.09;;;15.12;42.77
68399;BME280;56258;52.196;13.868;2023-02-17T05:17:43;101239.34;;;15.11;42.85
68399;BME280;56258;52.196;13.868;2023-02-17T05:20:10;101233.28;;;15.09;42.63
68399;BME280;56258;52.196;13.868;2023-02-17T05:22:36;101237.09;;;15.06;42.84
68399;BME280;56258;52.196;13.868;2023-02-17T05:25:03;101242.84;;;15.02;43.02
68399;BME280;56258;52.196;13.868;2023-02-17T05:27:30;101237.34;;;15.03;42.92
68399;BME280;56258;52.196;13.868;2023-02-17T05:29:57;101233.97;;;15.01;43.13
68399;BME280;56258;52.196;13.868;2023-02-17T05:32:24;101228.88;;;14.98;43.09
68399;BME280;56258;52.196;13.868;2023-02-17T05:34:50;101218.47;;;14.95;42.87
68399;BME280;56258;52.196;13.868;2023-02-17T05:37:17;101222.84;;;14.96;42.86
68399;BME280;56258;52.196;13.868;2023-02-17T05:39:44;101222.38;;;14.91;43.14
68399;BME280;56258;52.196;13.868;2023-02-17T05:42:11;101214.22;;;14.93;43.19
68399;BME280;56258;52.196;13.868;2023-02-17T05:44:37;101218.03;;;14.90;42.97
68399;BME280;56258;52.196;13.868;2023-02-17T05:47:04;101217.88;;;14.92;42.96
68399;BME280;56258;52.196;13.868;2023-02-17T05:49:31;101213.66;;;14.89;43.78
68399;BME280;56258;52.196;13.868;2023-02-17T05:51:57;101214.78;;;14.86;43.19
68399;BME280;56258;52.196;13.868;2023-02-17T05:54:24;101213.22;;;14.84;42.98
68399;BME280;56258;52.196;13.868;2023-02-17T05:56:50;101208.13;;;14.81;43.25
68399;BME280;56258;52.196;13.868;2023-02-17T05:59:18;101212.63;;;14.80;43.39
68399;BME280;56258;52.196;13.868;2023-02-17T06:01:44;101210.09;;;14.79;43.48
68399;BME280;56258;52.196;13.868;2023-02-17T06:04:11;101208.69;;;14.75;43.76
68399;BME280;56258;52.196;13.868;2023-02-17T06:06:37;101206.03;;;14.75;43.32
68399;BME280;56258;52.196;13.868;2023-02-17T06:09:04;101207.16;;;14.72;43.57
68399;BME280;56258;52.196;13.868;2023-02-17T06:11:31;101213.34;;;14.73;43.59
68399;BME280;56258;52.196;13.868;2023-02-17T06:13:57;101197.53;;;14.70;43.40
68399;BME280;56258;52.196;13.868;2023-02-17T06:16:24;101208.53;;;14.67;43.34
68399;BME280;56258;52.196;13.868;2023-02-17T06:18:51;101210.50;;;14.65;43.77
68399;BME280;56258;52.196;13.868;2023-02-17T06:21:17;101210.50;;;14.65;43.92
68399;BME280;56258;52.196;13.868;2023-02-17T06:23:44;101212.19;;;14.66;43.72
68399;BME280;56258;52.196;13.868;2023-02-17T06:26:10;101207.84;;;14.65;43.82
68399;BME280;56258;52.196;13.868;2023-02-17T06:28:37;101212.34;;;14.64;43.34
68399;BME280;56258;52.196;13.868;2023-02-17T06:31:04;101209.09;;;14.61;43.54
68399;BME280;56258;52.196;13.868;2023-02-17T06:33:30;101206.28;;;14.62;43.78
68399;BME280;56258;52.196;13.868;2023-02-17T06:35:57;101204.72;;;14.59;43.85
68399;BME280;56258;52.196;13.868;2023-02-17T06:38:24;101202.91;;;14.60;43.86
68399;BME280;56258;52.196;13.868;2023-02-17T06:40:50;101197.28;;;14.63;44.23
68399;BME280;56258;52.196;13.868;2023-02-17T06:43:17;101190.50;;;14.69;44.04
68399;BME280;56258;52.196;13.868;2023-02-17T06:45:43;101187.41;;;14.64;44.46
68399;BME280;56258;52.196;13.868;2023-02-17T06:48:10;101180.72;;;15.08;43.64
68399;BME280;56258;52.196;13.868;2023-02-17T06:50:37;101179.44;;;15.41;43.05
68399;BME280;56258;52.196;13.868;2023-02-17T06:53:04;101170.50;;;15.69;42.59
68399;BME280;56258;52.196;13.868;2023-02-17T06:55:30;101174.34;;;16.04;41.50
68399;BME280;56258;52.196;13.868;2023-02-17T06:57:57;101170.38;;;16.08;41.20
68399;BME280;56258;52.196;13.868;2023-02-17T07:00:23;101176.72;;;16.07;41.45
68399;BME280;56258;52.196;13.868;2023-02-17T07:02:50;101173.97;;;15.99;41.22
68399;BME280;56258;52.196;13.868;2023-02-17T07:05:17;101182.59;;;15.83;41.59
68399;BME280;56258;52.196;13.868;2023-02-17T07:07:43;101182.75;;;15.82;42.01
68399;BME280;56258;52.196;13.868;2023-02-17T07:10:10;101178.25;;;15.72;41.76
68399;BME280;56258;52.196;13.868;2023-02-17T07:12:37;101179.16;;;15.63;42.22
68399;BME280;56258;52.196;13.868;2023-02-17T07:15:04;101181.81;;;15.54;42.25
68399;BME280;56258;52.196;13.868;2023-02-17T07:17:31;101181.81;;;15.44;42.60
68399;BME280;56258;52.196;13.868;2023-02-17T07:19:57;101182.66;;;15.35;42.57
68399;BME280;56258;52.196;13.868;2023-02-17T07:22:24;101175.31;;;15.27;42.74
68399;BME280;56258;52.196;13.868;2023-02-17T07:24:52;101176.06;;;15.20;43.19
68399;BME280;56258;52.196;13.868;2023-02-17T07:27:18;101163.34;;;15.12;42.96
68399;BME280;56258;52.196;13.868;2023-02-17T07:29:45;101162.50;;;15.11;43.09
68399;BME280;56258;52.196;13.868;2023-02-17T07:32:11;101170.84;;;15.08;43.07
68399;BME280;56258;52.196;13.868;2023-02-17T07:34:38;101151.66;;;15.03;43.07
68399;BME280;56258;52.196;13.868;2023-02-17T07:37:05;101159.84;;;15.02;42.94
68399;BME280;56258;52.196;13.868;2023-02-17T07:39:32;101157.16;;;14.92;43.21
68399;BME280;56258;52.196;13.868;2023-02-17T07:41:59;101159.56;;;14.85;43.49
68399;BME280;56258;52.196;13.868;2023-02-17T07:44:26;101156.19;;;14.83;43.51
68399;BME280;56258;52.196;13.868;2023-02-17T07:46:53;101150.53;;;14.77;43.70
68399;BME280;56258;52.196;13.868;2023-02-17T07:49:20;101150.94;;;14.72;43.97
68399;BME280;56258;52.196;13.868;2023-02-17T07:51:46;101152.06;;;14.70;44.01
68399;BME280;56258;52.196;13.868;2023-02-17T07:54:13;101150.38;;;14.69;44.41
68399;BME280;56258;52.196;13.868;2023-02-17T07:56:40;101131.91;;;14.66;44.29
68399;BME280;56258;52.196;13.868;2023-02-17T07:59:08;101140.38;;;14.61;44.08
68399;BME280;56258;52.196;13.868;2023-02-17T08:01:35;101129.06;;;14.57;44.13
68399;BME280;56258;52.196;13.868;2023-02-17T08:04:02;101127.25;;;14.58;44.04
68399;BME280;56258;52.196;13.868;2023-02-17T08:06:30;101122.03;;;14.56;44.29
68399;BME280;56258;52.196;13.868;2023-02-17T08:08:57;101130.66;;;14.60;44.29
68399;BME280;56258;52.196;13.868;2023-02-17T08:11:42;101121.19;;;14.56;44.35
68399;BME280;56258;52.196;13.868;2023-02-17T08:14:29;101115.00;;;14.55;44.20
68399;BME280;56258;52.196;13.868;2023-02-17T08:16:56;101119.66;;;14.53;44.03
68399;BME280;56258;52.196;13.868;2023-02-17T08:19:23;101112.59;;;14.52;44.10
68399;BME280;56258;52.196;13.868;2023-02-17T08:21:55;101110.06;;;14.51;44.25
68399;BME280;56258;52.196;13.868;2023-02-17T08:24:22;101118.94;;;14.51;44.49
68399;BME280;56258;52.196;13.868;2023-02-17T08:26:50;101111.91;;;14.79;43.29
68399;BME280;56258;52.196;13.868;2023-02-17T08:29:17;101120.09;;;15.07;42.64
68399;BME280;56258;52.196;13.868;2023-02-17T08:31:46;101120.06;;;15.36;42.05
68399;BME280;56258;52.196;13.868;2023-02-17T08:34:17;101121.56;;;15.67;41.72
68399;BME280;56258;52.196;13.868;2023-02-17T08:36:43;101126.31;;;15.83;41.10
68399;BME280;56258;52.196;13.868;2023-02-17T08:39:13;101116.41;;;15.84;40.84
68399;BME280;56258;52.196;13.868;2023-02-17T08:41:40;101118.28;;;15.73;41.19
68399;BME280;56258;52.196;13.868;2023-02-17T08:44:13;101117.31;;;15.74;41.51
68399;BME280;56258;52.196;13.868;2023-02-17T08:46:40;101121.09;;;15.82;40.98
68399;BME280;56258;52.196;13.868;2023-02-17T08:49:08;101119.38;;;15.90;40.94
68399;BME280;56258;52.196;13.868;2023-02-17T08:51:35;101120.44;;;15.97;41.26
68399;BME280;56258;52.196;13.868;2023-02-17T08:54:04;101119.84;;;16.13;41.00
68399;BME280;56258;52.196;13.868;2023-02-17T08:56:32;101120.06;;;16.20;41.11
68399;BME280;56258;52.196;13.868;2023-02-17T08:59:00;101112.13;;;16.28;40.90
68399;BME280;56258;52.196;13.868;2023-02-17T09:01:26;101117.75;;;16.34;40.25
68399;BME280;56258;52.196;13.868;2023-02-17T09:03:55;101111.31;;;16.45;40.08
68399;BME280;56258;52.196;13.868;2023-02-17T09:06:22;101112.53;;;16.51;40.69
68399;BME280;56258;52.196;13.868;2023-02-17T09:08:49;101111.22;;;16.55;40.79
68399;BME280;56258;52.196;13.868;2023-02-17T09:11:16;101113.47;;;16.59;39.88
68399;BME280;56258;52.196;13.868;2023-02-17T09:13:45;101113.63;;;16.58;40.87
68399;BME280;56258;52.196;13.868;2023-02-17T09:16:11;101102.28;;;16.64;39.89
68399;BME280;56258;52.196;13.868;2023-02-17T09:18:38;101098.88;;;16.72;39.87
68399;BME280;56258;52.196;13.868;2023-02-17T09:21:10;101096.25;;;16.80;39.84
68399;BME280;56258;52.196;13.868;2023-02-17T09:23:39;101079.75;;;16.92;39.70
68399;BME280;56258;52.196;13.868;2023-02-17T09:26:08;101077.84;;;17.03;39.34
68399;BME280;56258;52.196;13.868;2023-02-17T09:28:36;101077.19;;;17.09;39.42
68399;BME280;56258;52.196;13.868;2023-02-17T09:31:10;101073.25;;;17.21;39.22
68399;BME280;56258;52.196;13.868;2023-02-17T09:33:38;101070.78;;;17.28;39.72
68399;BME280;56258;52.196;13.868;2023-02-17T09:36:06;101062.91;;;17.34;39.97
68399;BME280;56258;52.196;13.868;2023-02-17T09:38:34;101053.22;;;17.41;39.64
68399;BME280;56258;52.196;13.868;2023-02-17T09:43:44;101052.63;;;17.56;38.92
68399;BME280;56258;52.196;13.868;2023-02-17T09:46:16;101041.25;;;17.62;39.42
68399;BME280;56258;52.196;13.868;2023-02-17T09:48:45;101040.00;;;17.74;38.73
68399;BME280;56258;52.196;13.868;2023-02-17T09:51:25;101032.09;;;17.81;38.68
68399;BME280;56258;52.196;13.868;2023-02-17T09:56:27;101022.41;;;17.88;39.27
68399;BME280;56258;52.196;13.868;2023-02-17T09:59:02;101012.81;;;17.93;39.10
68399;BME280;56258;52.196;13.868;2023-02-17T10:01:32;101001.59;;;17.98;38.56
68399;BME280;56258;52.196;13.868;2023-02-17T10:04:10;100998.22;;;18.04;39.50
68399;BME280;56258;52.196;13.868;2023-02-17T10:06:45;100994.22;;;18.08;38.70
68399;BME280;56258;52.196;13.868;2023-02-17T10:09:23;100996.41;;;18.13;38.61
68399;BME280;56258;52.196;13.868;2023-02-17T10:12:00;100988.00;;;18.16;38.93
68399;BME280;56258;52.196;13.868;2023-02-17T10:14:32;100985.00;;;18.19;38.41
68399;BME280;56258;52.196;13.868;2023-02-17T10:17:23;100983.66;;;18.23;38.44
68399;BME280;56258;52.196;13.868;2023-02-17T10:22:32;100984.34;;;18.33;38.41
68399;BME280;56258;52.196;13.868;2023-02-17T10:25:00;100990.22;;;18.36;38.01
68399;BME280;56258;52.196;13.868;2023-02-17T10:32:58;100977.75;;;18.52;38.36
68399;BME280;56258;52.196;13.868;2023-02-17T10:35:47;100962.81;;;18.57;38.26
68399;BME280;56258;52.196;13.868;2023-02-17T10:40:58;100948.66;;;18.63;37.72
68399;BME280;56258;52.196;13.868;2023-02-17T10:43:28;100949.03;;;18.69;37.60
68399;BME280;56258;52.196;13.868;2023-02-17T10:45:58;100941.44;;;18.72;38.15
68399;BME280;56258;52.196;13.868;2023-02-17T10:48:33;100935.38;;;18.78;38.03
68399;BME280;56258;52.196;13.868;2023-02-17T10:51:01;100915.53;;;18.79;37.62
68399;BME280;56258;52.196;13.868;2023-02-17T10:53:35;100915.66;;;18.86;37.74
68399;BME280;56258;52.196;13.868;2023-02-17T11:01:16;100887.88;;;18.93;37.77
68399;BME280;56258;52.196;13.868;2023-02-17T11:03:42;100889.19;;;18.98;37.59
68399;BME280;56258;52.196;13.868;2023-02-17T11:06:19;100874.19;;;19.03;37.46
68399;BME280;56258;52.196;13.868;2023-02-17T11:11:23;100869.28;;;19.07;37.60
68399;BME280;56258;52.196;13.868;2023-02-17T11:14:42;100870.13;;;19.07;37.38
68399;BME280;56258;52.196;13.868;2023-02-17T11:17:01;100850.94;;;19.10;37.22
68399;BME280;56258;52.196;13.868;2023-02-17T11:19:30;100857.84;;;19.13;37.24
68399;BME280;56258;52.196;13.868;2023-02-17T11:22:01;100842.16;;;19.16;36.80
68399;BME280;56258;52.196;13.868;2023-02-17T11:24:31;100846.50;;;19.17;37.68
68399;BME280;56258;52.196;13.868;2023-02-17T11:27:04;100837.41;;;19.18;37.57
68399;BME280;56258;52.196;13.868;2023-02-17T11:29:31;100825.97;;;19.16;37.45
68399;BME280;56258;52.196;13.868;2023-02-17T11:32:09;100819.38;;;19.19;37.01
68399;BME280;56258;52.196;13.868;2023-02-17T11:34:41;100800.00;;;19.23;36.94
68399;BME280;56258;52.196;13.868;2023-02-17T11:39:49;100778.56;;;19.30;37.02
68399;BME280;56258;52.196;13.868;2023-02-17T11:42:21;100779.41;;;19.31;37.00
68399;BME280;56258;52.196;13.868;2023-02-17T11:44:48;100781.44;;;19.29;37.17
68399;BME280;56258;52.196;13.868;2023-02-17T11:47:31;100771.13;;;19.32;37.01
68399;BME280;56258;52.196;13.868;2023-02-17T11:53:34;100770.28;;;19.32;36.89
68399;BME280;56258;52.196;13.868;2023-02-17T11:56:17;100756.28;;;19.36;36.95
68399;BME280;56258;52.196;13.868;2023-02-17T12:04:53;100759.16;;;19.35;37.04
68399;BME280;56258;52.196;13.868;2023-02-17T12:10:53;100738.91;;;19.39;36.97
68399;BME280;56258;52.196;13.868;2023-02-17T12:18:36;100715.44;;;19.47;36.97
68399;BME280;56258;52.196;13.868;2023-02-17T12:24:03;100693.88;;;19.47;36.31
68399;BME280;56258;52.196;13.868;2023-02-17T12:26:37;100688.47;;;19.47;36.94
68399;BME280;56258;52.196;13.868;2023-02-17T12:29:23;100685.13;;;19.45;37.00
68399;BME280;56258;52.196;13.868;2023-02-17T12:32:09;100683.25;;;19.46;36.98
68399;BME280;56258;52.196;13.868;2023-02-17T12:34:49;100677.19;;;19.44;37.18
68399;BME280;56258;52.196;13.868;2023-02-17T12:37:22;100679.88;;;19.44;36.86
68399;BME280;56258;52.196;13.868;2023-02-17T12:39:56;100680.56;;;19.46;37.01
68399;BME280;56258;52.196;13.868;2023-02-17T12:42:37;100670.44;;;19.48;37.24
68399;BME280;56258;52.196;13.868;2023-02-17T12:45:15;100657.22;;;19.53;37.19
68399;BME280;56258;52.196;13.868;2023-02-17T12:47:53;100638.72;;;19.50;36.84
68399;BME280;56258;52.196;13.868;2023-02-17T12:50:38;100647.47;;;19.52;36.97
68399;BME280;56258;52.196;13.868;2023-02-17T12:53:13;100638.16;;;19.54;37.04
68399;BME280;56258;52.196;13.868;2023-02-17T12:55:45;100634.78;;;19.61;36.69
68399;BME280;56258;52.196;13.868;2023-02-17T12:58:19;100636.66;;;19.60;36.97
68399;BME280;56258;52.196;13.868;2023-02-17T13:00:57;100629.84;;;19.64;36.61
68399;BME280;56258;52.196;13.868;2023-02-17T13:03:29;100629.19;;;19.62;36.85
68399;BME280;56258;52.196;13.868;2023-02-17T13:09:00;100624.91;;;19.68;36.73
68399;BME280;56258;52.196;13.868;2023-02-17T13:11:33;100612.75;;;19.72;36.58
68399;BME280;56258;52.196;13.868;2023-02-17T13:14:26;100600.38;;;19.77;36.73
68399;BME280;56258;52.196;13.868;2023-02-17T13:16:54;100594.97;;;19.77;36.58
68399;BME280;56258;52.196;13.868;2023-02-17T13:19:28;100590.41;;;19.78;36.53
68399;BME280;56258;52.196;13.868;2023-02-17T13:21:57;100581.97;;;19.81;36.92
68399;BME280;56258;52.196;13.868;2023-02-17T13:24:36;100588.84;;;19.84;36.53
68399;BME280;56258;52.196;13.868;2023-02-17T13:27:20;100604.75;;;19.78;36.40
68399;BME280;56258;52.196;13.868;2023-02-17T13:30:23;100591.44;;;19.77;36.68
68399;BME280;56258;52.196;13.868;2023-02-17T13:33:14;100592.84;;;19.73;36.85
68399;BME280;56258;52.196;13.868;2023-02-17T13:35:51;100572.75;;;19.75;36.79
68399;BME280;56258;52.196;13.868;2023-02-17T13:38:29;100586.06;;;19.77;36.77
68399;BME280;56258;52.196;13.868;2023-02-17T13:40:59;100583.94;;;19.72;36.77
68399;BME280;56258;52.196;13.868;2023-02-17T13:43:28;100586.44;;;19.74;37.07
68399;BME280;56258;52.196;13.868;2023-02-17T13:45:58;100594.72;;;19.72;36.87
68399;BME280;56258;52.196;13.868;2023-02-17T13:48:31;100597.88;;;19.76;36.84
68399;BME280;56258;52.196;13.868;2023-02-17T13:51:03;100592.59;;;19.83;36.78
68399;BME280;56258;52.196;13.868;2023-02-17T13:53:31;100586.72;;;19.94;36.57
68399;BME280;56258;52.196;13.868;2023-02-17T13:56:01;100583.84;;;19.95;36.77
68399;BME280;56258;52.196;13.868;2023-02-17T13:58:33;100579.47;;;19.94;37.09
68399;BME280;56258;52.196;13.868;2023-02-17T14:01:01;100592.13;;;19.94;36.85
68399;BME280;56258;52.196;13.868;2023-02-17T14:03:51;100577.50;;;19.88;36.56
68399;BME280;56258;52.196;13.868;2023-02-17T14:06:26;100572.88;;;19.82;37.16
68399;BME280;56258;52.196;13.868;2023-02-17T14:08:55;100574.72;;;19.81;37.01
68399;BME280;56258;52.196;13.868;2023-02-17T14:11:25;100561.44;;;19.80;36.82
68399;BME280;56258;52.196;13.868;2023-02-17T14:13:54;100565.69;;;19.74;36.66